Terminal Aerodrome Forecast
Issued by NWS

Home | Current Version | Previous Version | Text Only | Print | Product List | Glossary On
Versions: 1 2 3 4 5 6 7 8 9 10 11 12 13 14 15
240
FTUS41 KBTV 251731
TAFRUT
TAF
KRUT 251731Z 2518/2618 24009G15KT P6SM SCT050 BKN090
     FM252100 25009G16KT P6SM VCSH SCT070 SCT150
     FM260100 VRB04KT P6SM SCT060 SCT150=

USA.gov is the U.S. government's official web portal to all federal, state and local government web resources and services.